createdAt,value
2023-04-27T00:00:21.861Z,81.50
2023-04-27T00:00:53.549Z,82.20
2023-04-27T00:01:25.307Z,83.20
2023-04-27T00:01:57.137Z,82.30
2023-04-27T00:02:29.023Z,82.30
2023-04-27T00:03:05.722Z,82.40
2023-04-27T00:03:38.368Z,82.10
2023-04-27T00:04:10.361Z,80.40
2023-04-27T00:04:43.101Z,82.80
2023-04-27T00:05:15.456Z,82.10
2023-04-27T00:05:47.439Z,82.60
2023-04-27T00:06:19.375Z,81.70
2023-04-27T00:06:52.113Z,81.80
2023-04-27T00:07:23.891Z,83.00
2023-04-27T00:07:55.774Z,82.30
2023-04-27T00:08:27.474Z,82.30
2023-04-27T00:08:59.591Z,82.40
2023-04-27T00:09:31.385Z,83.50
2023-04-27T00:10:03.296Z,80.00
2023-04-27T00:10:35.309Z,83.20
2023-04-27T00:11:07.035Z,83.30
2023-04-27T00:11:38.780Z,82.40
2023-04-27T00:12:10.490Z,82.30
2023-04-27T00:12:42.595Z,82.90
2023-04-27T00:13:14.376Z,82.30
2023-04-27T00:13:46.151Z,82.30
2023-04-27T00:14:18.052Z,81.70
2023-04-27T00:14:49.904Z,81.90
2023-04-27T00:15:21.665Z,81.90
2023-04-27T00:15:53.531Z,81.80
2023-04-27T00:16:25.833Z,82.20
2023-04-27T00:16:57.601Z,82.40
2023-04-27T00:17:29.357Z,81.60
2023-04-27T00:18:02.143Z,81.60
2023-04-27T00:18:33.940Z,81.60
2023-04-27T00:19:05.734Z,81.70
2023-04-27T00:19:37.649Z,81.60
2023-04-27T00:20:11.883Z,83.20
2023-04-27T00:20:44.590Z,81.90
2023-04-27T00:21:16.608Z,81.70
2023-04-27T00:21:48.495Z,81.90
2023-04-27T00:22:20.655Z,81.80
2023-04-27T00:22:52.373Z,82.90
2023-04-27T00:23:24.261Z,83.00
2023-04-27T00:23:56.418Z,81.70
2023-04-27T00:24:28.158Z,81.70
2023-04-27T00:24:59.897Z,81.60
2023-04-27T00:25:31.679Z,81.60
2023-04-27T00:26:03.500Z,81.70
2023-04-27T00:26:35.476Z,81.60
2023-04-27T00:27:07.997Z,81.80
2023-04-27T00:27:39.900Z,82.30
2023-04-27T00:28:11.655Z,81.60
2023-04-27T00:28:43.407Z,81.60
2023-04-27T00:29:15.326Z,81.70
2023-04-27T00:29:47.293Z,83.70
2023-04-27T00:30:19.054Z,81.90
2023-04-27T00:30:54.244Z,81.70
2023-04-27T00:31:26.046Z,83.20
2023-04-27T00:31:57.841Z,81.70
2023-04-27T00:32:29.620Z,81.70
2023-04-27T00:33:01.559Z,83.40
2023-04-27T00:33:33.293Z,81.90
2023-04-27T00:34:05.088Z,82.40
2023-04-27T00:34:37.585Z,82.40
2023-04-27T00:35:10.132Z,82.30
2023-04-27T00:35:41.903Z,82.40
2023-04-27T00:36:13.793Z,81.80
2023-04-27T00:36:46.042Z,82.50
2023-04-27T00:37:18.700Z,79.90
2023-04-27T00:37:53.167Z,81.80
2023-04-27T00:38:24.913Z,81.70
2023-04-27T00:38:56.679Z,81.80
2023-04-27T00:39:29.282Z,81.50
2023-04-27T00:40:01.555Z,81.90
2023-04-27T00:40:33.638Z,82.60
2023-04-27T00:41:07.218Z,81.90
2023-04-27T00:41:39.485Z,81.80
2023-04-27T00:42:15.151Z,82.00
2023-04-27T00:42:47.009Z,81.90
2023-04-27T00:43:51.044Z,82.10
2023-04-27T00:44:24.601Z,82.60
2023-04-27T00:44:58.690Z,82.80
2023-04-27T00:45:30.562Z,81.80
2023-04-27T00:46:03.220Z,84.10
2023-04-27T00:46:36.176Z,83.50
2023-04-27T00:47:07.943Z,83.70
2023-04-27T00:47:39.959Z,83.20
2023-04-27T00:48:12.284Z,79.80
2023-04-27T00:48:46.683Z,82.60
2023-04-27T00:49:19.418Z,82.40
2023-04-27T00:49:51.502Z,82.80
2023-04-27T00:50:29.695Z,83.60
2023-04-27T00:51:33.671Z,82.00
2023-04-27T00:52:05.921Z,82.50
2023-04-27T00:52:38.569Z,82.40
2023-04-27T00:53:10.465Z,82.00
2023-04-27T00:53:43.356Z,83.50
2023-04-27T00:54:21.414Z,82.50
2023-04-27T00:54:53.258Z,82.10
2023-04-27T00:55:25.832Z,82.20
2023-04-27T00:55:58.562Z,82.00
2023-04-27T00:56:30.845Z,82.60
2023-04-27T00:57:04.041Z,82.60
2023-04-27T00:57:35.848Z,82.60
2023-04-27T00:58:09.359Z,82.00
2023-04-27T00:58:41.132Z,81.90
2023-04-27T00:59:13.043Z,83.50
2023-04-27T00:59:45.041Z,82.00
2023-04-27T01:00:18.645Z,82.10
2023-04-27T01:00:51.114Z,82.10
2023-04-27T01:01:23.856Z,82.00
2023-04-27T01:01:56.348Z,82.00
2023-04-27T01:02:29.871Z,83.00
2023-04-27T01:03:02.643Z,84.00
2023-04-27T01:03:34.701Z,83.80
2023-04-27T01:04:06.845Z,82.20
2023-04-27T01:04:39.098Z,82.30
2023-04-27T01:05:12.497Z,82.20
2023-04-27T01:05:44.441Z,82.70
2023-04-27T01:06:16.405Z,82.60
2023-04-27T01:06:49.366Z,82.70
2023-04-27T01:07:26.180Z,82.10
2023-04-27T01:07:57.955Z,82.20
2023-04-27T01:08:31.569Z,82.20
2023-04-27T01:09:05.301Z,82.10
2023-04-27T01:09:37.324Z,82.70
2023-04-27T01:10:09.588Z,84.10
2023-04-27T01:10:41.561Z,82.80
2023-04-27T01:11:16.035Z,82.70
2023-04-27T01:11:47.798Z,82.90
2023-04-27T01:12:19.778Z,83.90
2023-04-27T01:12:51.514Z,84.60
2023-04-27T01:13:23.584Z,83.00
2023-04-27T01:13:56.906Z,82.80
2023-04-27T01:14:28.667Z,82.20
2023-04-27T01:15:00.848Z,83.50
2023-04-27T01:15:32.545Z,82.30
2023-04-27T01:16:04.837Z,84.90
2023-04-27T01:16:37.355Z,82.30
2023-04-27T01:17:09.274Z,83.40
2023-04-27T01:17:43.724Z,82.90
2023-04-27T01:18:15.670Z,82.70
2023-04-27T01:18:47.674Z,82.30
2023-04-27T01:19:19.613Z,82.30
2023-04-27T01:19:52.193Z,82.40
2023-04-27T01:20:24.063Z,82.90
2023-04-27T01:20:56.017Z,83.00
2023-04-27T01:21:27.837Z,83.10
2023-04-27T01:21:59.629Z,82.30
2023-04-27T01:22:31.746Z,82.40
2023-04-27T01:23:03.495Z,83.00
2023-04-27T01:23:35.220Z,83.40
2023-04-27T01:24:07.628Z,83.20
2023-04-27T01:24:42.372Z,82.60
2023-04-27T01:25:14.195Z,82.60
2023-04-27T01:25:46.071Z,83.20
2023-04-27T01:26:18.120Z,82.70
2023-04-27T01:26:52.084Z,83.10
2023-04-27T01:27:24.015Z,82.40
2023-04-27T01:27:55.841Z,83.10
2023-04-27T01:28:27.633Z,83.10
2023-04-27T01:28:59.873Z,82.50
2023-04-27T01:29:32.446Z,83.20
2023-04-27T01:30:04.909Z,82.60
2023-04-27T01:30:37.004Z,82.90
2023-04-27T01:31:11.322Z,83.00
2023-04-27T01:32:47.926Z,82.60
2023-04-27T01:33:19.748Z,84.20
2023-04-27T01:33:53.325Z,83.60
2023-04-27T01:34:28.109Z,83.10
2023-04-27T01:35:00.026Z,83.00
2023-04-27T01:35:31.833Z,82.50
2023-04-27T01:36:06.154Z,83.10
2023-04-27T01:36:37.948Z,82.50
2023-04-27T01:37:09.709Z,82.50
2023-04-27T01:37:41.651Z,82.50
2023-04-27T01:38:16.462Z,83.50
2023-04-27T01:38:49.166Z,83.10
2023-04-27T01:39:21.205Z,83.20
2023-04-27T01:39:53.340Z,82.80
2023-04-27T01:40:25.281Z,83.50
2023-04-27T01:41:04.371Z,82.70
2023-04-27T01:41:36.957Z,83.20
2023-04-27T01:42:09.063Z,82.70
2023-04-27T01:42:44.121Z,83.20
2023-04-27T01:43:15.992Z,83.90
2023-04-27T01:43:47.727Z,82.80
2023-04-27T01:44:21.073Z,82.70
2023-04-27T01:44:52.975Z,84.50
2023-04-27T01:45:24.995Z,84.00
2023-04-27T01:46:06.143Z,83.60
2023-04-27T01:46:38.057Z,82.90
2023-04-27T01:47:09.911Z,82.80
2023-04-27T01:47:41.661Z,85.00
2023-04-27T01:48:13.665Z,84.90
2023-04-27T01:48:45.404Z,81.60
2023-04-27T01:49:17.351Z,83.80
2023-04-27T01:49:49.339Z,83.60
2023-04-27T01:50:21.409Z,83.90
2023-04-27T01:50:53.216Z,85.00
2023-04-27T01:51:25.003Z,84.10
2023-04-27T01:51:56.778Z,84.70
2023-04-27T01:52:28.481Z,84.60
2023-04-27T01:53:00.527Z,83.70
2023-04-27T01:53:34.135Z,82.90
2023-04-27T01:54:06.318Z,83.50
2023-04-27T01:54:38.072Z,83.50
2023-04-27T01:55:11.397Z,82.90
2023-04-27T01:55:43.190Z,83.60
2023-04-27T01:56:15.011Z,85.00
2023-04-27T01:56:46.768Z,81.30
2023-04-27T01:57:18.485Z,82.90
2023-04-27T01:57:50.246Z,83.50
2023-04-27T01:58:22.434Z,84.10
2023-04-27T01:58:54.265Z,83.60
2023-04-27T01:59:26.132Z,83.50
2023-04-27T01:59:57.957Z,83.00
2023-04-27T02:00:30.325Z,82.90
2023-04-27T02:01:02.066Z,83.60
2023-04-27T02:01:34.474Z,84.60
2023-04-27T02:02:06.394Z,83.10
2023-04-27T02:02:38.390Z,83.10
2023-04-27T02:03:12.579Z,85.50
2023-04-27T02:03:44.573Z,83.00
2023-04-27T02:04:17.671Z,83.50
2023-04-27T02:04:49.691Z,83.70
2023-04-27T02:05:21.535Z,83.10
2023-04-27T02:05:53.478Z,83.20
2023-04-27T02:06:25.374Z,83.30
2023-04-27T02:06:57.231Z,83.20
2023-04-27T02:07:29.073Z,83.80
2023-04-27T02:08:01.187Z,83.20
2023-04-27T02:08:34.163Z,83.80
2023-04-27T02:09:06.002Z,83.60
2023-04-27T02:09:38.075Z,84.80
2023-04-27T02:10:10.321Z,83.70
2023-04-27T02:10:42.231Z,83.80
2023-04-27T02:11:13.991Z,83.80
2023-04-27T02:11:45.780Z,83.20
2023-04-27T02:12:17.553Z,83.20
2023-04-27T02:12:49.309Z,84.50
2023-04-27T02:13:21.200Z,84.30
2023-04-27T02:13:53.228Z,83.70
2023-04-27T02:14:25.067Z,84.00
2023-04-27T02:14:56.832Z,83.20
2023-04-27T02:15:29.288Z,83.20
2023-04-27T02:16:03.280Z,85.70
2023-04-27T02:16:35.554Z,84.80
2023-04-27T02:17:07.456Z,83.10
2023-04-27T02:17:39.891Z,83.20
2023-04-27T02:18:11.814Z,84.60
2023-04-27T02:18:44.538Z,83.20
2023-04-27T02:19:16.600Z,84.50
2023-04-27T02:19:49.000Z,83.30
2023-04-27T02:20:20.753Z,83.20
2023-04-27T02:20:52.626Z,83.30
2023-04-27T02:21:56.579Z,83.30
2023-04-27T02:22:28.304Z,83.90
2023-04-27T02:23:00.980Z,83.30
2023-04-27T02:23:32.760Z,84.10
2023-04-27T02:24:05.097Z,83.90
2023-04-27T02:24:36.832Z,83.30
2023-04-27T02:25:09.496Z,83.20
2023-04-27T02:25:46.467Z,83.70
2023-04-27T02:26:20.271Z,83.20
2023-04-27T02:26:52.061Z,84.10
2023-04-27T02:27:23.909Z,83.70
2023-04-27T02:27:56.244Z,83.80
2023-04-27T02:28:28.523Z,83.30
2023-04-27T02:29:01.060Z,84.00
2023-04-27T02:29:33.219Z,83.90
2023-04-27T02:30:09.702Z,85.40
2023-04-27T02:30:41.898Z,83.20
2023-04-27T02:31:14.664Z,83.90
2023-04-27T02:31:46.993Z,83.70
2023-04-27T02:32:18.816Z,83.70
2023-04-27T02:32:50.712Z,83.80
2023-04-27T02:33:22.638Z,83.90
2023-04-27T02:33:54.475Z,83.80
2023-04-27T02:34:26.240Z,85.10
2023-04-27T02:34:58.037Z,84.30
2023-04-27T02:35:34.752Z,83.40
2023-04-27T02:36:07.505Z,83.80
2023-04-27T02:36:39.309Z,83.30
2023-04-27T02:37:11.145Z,83.40
2023-04-27T02:37:42.910Z,83.90
2023-04-27T02:38:14.646Z,85.00
2023-04-27T02:38:47.797Z,83.40
2023-04-27T02:39:19.504Z,83.90
2023-04-27T02:39:51.283Z,83.90
2023-04-27T02:40:23.052Z,82.30
2023-04-27T02:40:55.281Z,84.10
2023-04-27T02:41:28.467Z,83.30
2023-04-27T02:42:00.269Z,83.90
2023-04-27T02:42:32.019Z,84.00
2023-04-27T02:43:03.991Z,83.40
2023-04-27T02:43:36.696Z,84.70
2023-04-27T02:44:10.745Z,83.40
2023-04-27T02:45:14.900Z,83.40
2023-04-27T02:45:46.694Z,83.40
2023-04-27T02:46:18.470Z,83.90
2023-04-27T02:46:50.910Z,84.00
2023-04-27T02:47:22.694Z,84.60
2023-04-27T02:47:54.557Z,85.40
2023-04-27T02:48:26.717Z,83.20
2023-04-27T02:48:58.529Z,83.80
2023-04-27T02:49:30.313Z,83.60
2023-04-27T02:50:02.893Z,83.90
2023-04-27T02:50:42.570Z,83.30
2023-04-27T02:51:14.411Z,83.80
2023-04-27T02:51:46.280Z,83.90
2023-04-27T02:52:18.086Z,84.20
2023-04-27T02:52:49.839Z,83.30
2023-04-27T02:53:21.915Z,85.40
2023-04-27T02:53:54.285Z,83.40
2023-04-27T02:54:26.018Z,83.90
2023-04-27T02:54:57.821Z,83.30
2023-04-27T02:55:29.778Z,84.20
2023-04-27T02:56:01.967Z,85.80
2023-04-27T02:56:33.783Z,84.30
2023-04-27T02:57:05.645Z,85.30
2023-04-27T02:57:37.535Z,83.50
2023-04-27T02:58:09.227Z,84.20
2023-04-27T02:58:41.084Z,85.80
2023-04-27T02:59:13.027Z,83.40
2023-04-27T02:59:45.086Z,84.20
2023-04-27T03:00:17.007Z,85.20
2023-04-27T03:00:54.816Z,83.40
2023-04-27T03:01:26.668Z,83.40
2023-04-27T03:01:58.865Z,83.90
2023-04-27T03:02:30.978Z,83.90
2023-04-27T03:03:03.043Z,85.20
2023-04-27T03:03:35.092Z,84.10
2023-04-27T03:04:07.072Z,83.90
2023-04-27T03:04:39.103Z,84.40
2023-04-27T03:05:11.063Z,85.10
2023-04-27T03:05:42.796Z,85.30
2023-04-27T03:06:15.046Z,83.40
2023-04-27T03:06:47.104Z,84.80
2023-04-27T03:07:21.756Z,83.90
2023-04-27T03:07:53.516Z,83.50
2023-04-27T03:08:25.315Z,84.00
2023-04-27T03:08:57.110Z,84.10
2023-04-27T03:09:28.942Z,85.80
2023-04-27T03:10:02.495Z,83.50
2023-04-27T03:10:35.324Z,84.00
2023-04-27T03:11:09.324Z,85.80
2023-04-27T03:11:41.523Z,83.60
2023-04-27T03:12:13.307Z,83.40
2023-04-27T03:12:45.122Z,84.10
2023-04-27T03:13:16.886Z,83.90
2023-04-27T03:13:48.939Z,84.00
2023-04-27T03:14:20.805Z,83.60
2023-04-27T03:14:52.673Z,82.70
2023-04-27T03:15:24.463Z,83.40
2023-04-27T03:15:57.419Z,84.00
2023-04-27T03:16:31.406Z,83.50
2023-04-27T03:17:03.225Z,83.50
2023-04-27T03:17:35.692Z,83.70
2023-04-27T03:18:07.746Z,83.60
2023-04-27T03:18:40.448Z,84.50
2023-04-27T03:19:12.676Z,84.10
2023-04-27T03:19:44.635Z,85.00
2023-04-27T03:20:16.435Z,84.50
2023-04-27T03:20:48.190Z,84.20
2023-04-27T03:21:20.137Z,84.20
2023-04-27T03:21:54.275Z,84.70
2023-04-27T03:22:26.200Z,83.50
2023-04-27T03:22:57.949Z,83.70
2023-04-27T03:23:29.768Z,85.60
2023-04-27T03:24:01.550Z,84.90
2023-04-27T03:24:33.321Z,85.40
2023-04-27T03:25:05.650Z,84.20
2023-04-27T03:25:37.426Z,84.30
2023-04-27T03:26:11.112Z,84.50
2023-04-27T03:26:43.060Z,84.20
2023-04-27T03:27:14.828Z,85.70
2023-04-27T03:27:47.563Z,83.50
2023-04-27T03:28:19.320Z,83.60
2023-04-27T03:28:51.116Z,84.40
2023-04-27T03:29:22.882Z,84.30
2023-04-27T03:29:54.622Z,83.60
2023-04-27T03:30:26.669Z,83.60
2023-04-27T03:30:58.428Z,84.40
2023-04-27T03:31:30.241Z,84.30
2023-04-27T03:32:04.403Z,83.80
2023-04-27T03:32:36.222Z,84.60
2023-04-27T03:33:08.133Z,84.30
2023-04-27T03:33:41.226Z,86.20
2023-04-27T03:34:13.022Z,84.20
2023-04-27T03:34:44.744Z,84.30
2023-04-27T03:35:16.596Z,83.70
2023-04-27T03:35:57.378Z,84.20
2023-04-27T03:36:29.146Z,83.70
2023-04-27T03:37:02.125Z,84.40
2023-04-27T03:37:34.246Z,83.70
2023-04-27T03:38:06.380Z,84.70
2023-04-27T03:38:38.197Z,83.80
2023-04-27T03:39:09.974Z,84.80
2023-04-27T03:39:41.797Z,86.30
2023-04-27T03:40:15.173Z,85.30
2023-04-27T03:40:46.955Z,84.30
2023-04-27T03:41:18.715Z,86.10
2023-04-27T03:41:50.477Z,83.60
2023-04-27T03:42:22.272Z,84.70
2023-04-27T03:42:55.479Z,84.60
2023-04-27T03:43:28.211Z,83.90
2023-04-27T03:44:00.029Z,83.70
2023-04-27T03:44:33.526Z,83.80
2023-04-27T03:45:06.569Z,84.50
2023-04-27T03:45:39.179Z,84.40
2023-04-27T03:46:11.143Z,83.70
2023-04-27T03:46:42.960Z,85.20
2023-04-27T03:47:14.774Z,83.70
2023-04-27T03:47:47.103Z,85.40
2023-04-27T03:48:20.687Z,84.40
2023-04-27T03:48:52.599Z,85.80
2023-04-27T03:49:24.825Z,83.90
2023-04-27T03:49:56.608Z,84.40
2023-04-27T03:50:30.102Z,83.40
2023-04-27T03:51:02.171Z,84.60
2023-04-27T03:51:33.933Z,83.90
2023-04-27T03:52:05.908Z,84.00
2023-04-27T03:52:39.636Z,85.50
2023-04-27T03:53:11.481Z,85.40
2023-04-27T03:53:43.954Z,84.40
2023-04-27T03:54:15.819Z,83.90
2023-04-27T03:54:47.590Z,84.50
2023-04-27T03:55:19.393Z,83.90
2023-04-27T03:55:51.566Z,84.10
2023-04-27T03:56:23.360Z,84.50
2023-04-27T03:56:56.246Z,85.00
2023-04-27T03:57:28.604Z,84.80
2023-04-27T03:58:00.368Z,83.90
2023-04-27T03:58:32.162Z,85.20
2023-04-27T03:59:24.146Z,83.90
2023-04-27T03:59:57.678Z,85.50
2023-04-27T04:00:31.334Z,84.50
2023-04-27T04:01:03.356Z,84.50
2023-04-27T04:01:35.138Z,84.50
2023-04-27T04:02:07.854Z,84.10
2023-04-27T04:02:39.774Z,86.30
2023-04-27T04:03:12.029Z,86.30
2023-04-27T04:03:44.231Z,86.40
2023-04-27T04:04:17.109Z,84.10
2023-04-27T04:04:49.846Z,86.40
2023-04-27T04:05:22.919Z,84.70
2023-04-27T04:05:54.806Z,85.80
2023-04-27T04:06:27.959Z,86.10
2023-04-27T04:07:00.991Z,84.50
2023-04-27T04:07:32.752Z,86.20
2023-04-27T04:08:04.681Z,84.60
2023-04-27T04:08:36.761Z,85.70
2023-04-27T04:09:08.632Z,85.40
2023-04-27T04:09:40.882Z,84.00
2023-04-27T04:10:12.704Z,86.50
2023-04-27T04:10:44.526Z,84.00
2023-04-27T04:11:16.871Z,85.00
2023-04-27T04:11:48.651Z,84.50
2023-04-27T04:12:20.980Z,84.00
2023-04-27T04:12:53.110Z,83.90
2023-04-27T04:13:25.002Z,84.90
2023-04-27T04:13:56.800Z,85.30
2023-04-27T04:14:28.744Z,84.70
2023-04-27T04:15:05.226Z,85.90
2023-04-27T04:15:38.003Z,84.20
2023-04-27T04:16:10.733Z,84.20
2023-04-27T04:16:44.120Z,85.70
2023-04-27T04:17:16.287Z,84.20
2023-04-27T04:17:49.197Z,84.00
2023-04-27T04:18:21.176Z,86.30
2023-04-27T04:18:52.908Z,84.80
2023-04-27T04:19:24.655Z,86.10
2023-04-27T04:19:56.482Z,84.50
2023-04-27T04:20:28.364Z,84.10
2023-04-27T04:21:00.193Z,84.70
2023-04-27T04:21:32.021Z,84.10
2023-04-27T04:22:03.799Z,84.20
2023-04-27T04:22:35.667Z,86.30
2023-04-27T04:23:07.388Z,84.70
2023-04-27T04:23:41.106Z,84.20
2023-04-27T04:24:13.465Z,84.70
2023-04-27T04:24:45.273Z,84.70
2023-04-27T04:25:17.071Z,84.30
2023-04-27T04:25:49.047Z,84.10
2023-04-27T04:26:23.429Z,86.40
2023-04-27T04:26:55.916Z,84.20
2023-04-27T04:27:27.658Z,84.70
2023-04-27T04:27:59.435Z,84.10
2023-04-27T04:28:31.274Z,84.60
2023-04-27T04:29:03.589Z,85.30
2023-04-27T04:30:08.334Z,84.20
2023-04-27T04:30:41.589Z,84.70
2023-04-27T04:31:46.839Z,84.30
2023-04-27T04:32:19.877Z,84.30
2023-04-27T04:32:51.821Z,85.60
2023-04-27T04:33:24.281Z,85.20
2023-04-27T04:33:56.728Z,84.70
2023-04-27T04:34:29.208Z,85.80
2023-04-27T04:35:01.569Z,84.70
2023-04-27T04:35:34.342Z,84.60
2023-04-27T04:36:06.813Z,84.00
2023-04-27T04:36:39.137Z,84.10
2023-04-27T04:37:11.687Z,84.30
2023-04-27T04:38:15.896Z,84.20
2023-04-27T04:38:47.982Z,86.60
2023-04-27T04:39:21.085Z,84.70
2023-04-27T04:39:52.925Z,84.20
2023-04-27T04:40:24.868Z,84.30
2023-04-27T04:40:56.616Z,84.90
2023-04-27T04:41:28.416Z,84.20
2023-04-27T04:42:00.307Z,85.70
2023-04-27T04:42:38.980Z,84.80
2023-04-27T04:43:13.189Z,84.70
2023-04-27T04:44:17.530Z,84.00
2023-04-27T04:44:49.870Z,84.10
2023-04-27T04:45:21.853Z,84.20
2023-04-27T04:45:53.718Z,84.90
2023-04-27T04:46:25.844Z,84.10
2023-04-27T04:46:57.685Z,84.70
2023-04-27T04:47:34.555Z,84.80
2023-04-27T04:48:06.549Z,84.80
2023-04-27T04:48:39.774Z,84.90
2023-04-27T04:49:12.045Z,84.90
2023-04-27T04:50:16.763Z,84.30
2023-04-27T04:50:48.819Z,84.20
2023-04-27T04:51:20.640Z,84.30
2023-04-27T04:51:52.474Z,84.90
2023-04-27T04:52:24.220Z,84.20
2023-04-27T04:52:56.498Z,84.70
2023-04-27T04:53:28.298Z,84.20
2023-04-27T04:54:02.074Z,84.90
2023-04-27T04:54:34.080Z,84.80
2023-04-27T04:55:06.419Z,84.80
2023-04-27T04:55:38.187Z,84.80
2023-04-27T04:56:13.690Z,85.20
2023-04-27T04:56:45.678Z,84.70
2023-04-27T04:57:17.413Z,85.80
2023-04-27T04:57:49.260Z,84.40
2023-04-27T04:58:21.024Z,84.30
2023-04-27T04:58:53.096Z,84.20
2023-04-27T04:59:25.183Z,84.30
2023-04-27T04:59:57.399Z,86.90
2023-04-27T05:00:29.616Z,86.10
2023-04-27T05:01:01.824Z,86.30
2023-04-27T05:01:33.605Z,84.10
2023-04-27T05:02:05.673Z,84.90
2023-04-27T05:02:37.757Z,84.80
2023-04-27T05:03:09.787Z,85.30
2023-04-27T05:03:41.718Z,84.10
2023-04-27T05:04:13.733Z,84.80
2023-04-27T05:04:45.727Z,86.70
2023-04-27T05:05:17.807Z,84.10
2023-04-27T05:05:49.526Z,84.20
2023-04-27T05:06:21.517Z,86.50
2023-04-27T05:06:53.224Z,85.40
2023-04-27T05:07:25.209Z,84.10
2023-04-27T05:07:57.024Z,84.60
2023-04-27T05:08:29.017Z,84.60
2023-04-27T05:09:00.815Z,84.20
2023-04-27T05:09:32.755Z,85.40
2023-04-27T05:10:04.996Z,86.40
2023-04-27T05:10:36.736Z,84.60
2023-04-27T05:11:08.479Z,84.60
2023-04-27T05:11:40.217Z,86.60
2023-04-27T05:12:11.919Z,84.10
2023-04-27T05:12:44.546Z,84.60
2023-04-27T05:13:16.567Z,84.60
2023-04-27T05:13:48.320Z,84.60
2023-04-27T05:14:20.143Z,85.70
2023-04-27T05:14:52.851Z,84.70
2023-04-27T05:15:24.610Z,86.30
2023-04-27T05:15:56.512Z,84.10
2023-04-27T05:16:28.513Z,84.60
2023-04-27T05:17:00.306Z,84.00
2023-04-27T05:17:32.097Z,84.00
2023-04-27T05:18:04.024Z,84.90
2023-04-27T05:18:36.252Z,84.00
2023-04-27T05:19:08.395Z,84.50
2023-04-27T05:19:40.232Z,86.20
2023-04-27T05:20:12.110Z,84.20
2023-04-27T05:20:43.902Z,84.00
2023-04-27T05:21:17.450Z,84.30
2023-04-27T05:21:49.252Z,84.50
2023-04-27T05:22:20.977Z,84.50
2023-04-27T05:22:52.717Z,84.50
2023-04-27T05:23:24.580Z,84.60
2023-04-27T05:23:56.357Z,84.50
2023-04-27T05:24:28.190Z,84.20
2023-04-27T05:24:59.986Z,84.60
2023-04-27T05:25:32.476Z,84.00
2023-04-27T05:26:12.536Z,84.50
2023-04-27T05:26:44.407Z,84.50
2023-04-27T05:27:16.709Z,84.60
2023-04-27T05:27:48.417Z,84.70
2023-04-27T05:28:20.738Z,83.10
2023-04-27T05:28:52.539Z,86.30
2023-04-27T05:29:24.580Z,85.60
2023-04-27T05:29:56.314Z,84.10
2023-04-27T05:30:28.094Z,84.20
2023-04-27T05:30:59.856Z,85.20
2023-04-27T05:31:31.701Z,85.50
2023-04-27T05:32:03.646Z,86.00
2023-04-27T05:32:37.254Z,85.80
2023-04-27T05:33:09.386Z,84.10
2023-04-27T05:33:41.197Z,84.10
2023-04-27T05:34:13.281Z,85.20
2023-04-27T05:34:46.700Z,84.80
2023-04-27T05:35:19.752Z,84.80
2023-04-27T05:36:23.743Z,83.70
2023-04-27T05:36:55.462Z,85.10
2023-04-27T05:37:27.155Z,85.20
2023-04-27T05:38:31.555Z,84.20
2023-04-27T05:39:04.202Z,84.10
2023-04-27T05:39:36.374Z,84.80
2023-04-27T05:40:11.375Z,85.20
2023-04-27T05:40:43.128Z,84.60
2023-04-27T05:41:15.641Z,86.20
2023-04-27T05:41:47.405Z,84.80
2023-04-27T05:42:19.129Z,85.30
2023-04-27T05:42:50.928Z,85.60
2023-04-27T05:43:23.402Z,84.10
2023-04-27T05:43:55.160Z,84.30
2023-04-27T05:44:29.322Z,85.10
2023-04-27T05:45:01.427Z,83.30
2023-04-27T05:45:33.238Z,84.30
2023-04-27T05:46:05.444Z,84.80
2023-04-27T05:46:38.746Z,84.80
2023-04-27T05:47:10.853Z,85.30
2023-04-27T05:47:43.026Z,84.80
2023-04-27T05:48:14.922Z,85.50
2023-04-27T05:48:46.897Z,86.90
2023-04-27T05:49:18.785Z,84.40
2023-04-27T05:49:52.536Z,84.40
2023-04-27T05:50:24.472Z,85.00
2023-04-27T05:51:01.448Z,85.10
2023-04-27T05:51:33.826Z,84.40
2023-04-27T05:52:05.731Z,84.50
2023-04-27T05:52:38.786Z,84.40
2023-04-27T05:53:10.694Z,84.50
2023-04-27T05:53:42.967Z,84.40
2023-04-27T05:54:14.853Z,84.40
2023-04-27T05:54:50.994Z,86.20
2023-04-27T05:55:22.997Z,84.30
2023-04-27T05:55:54.814Z,84.80
2023-04-27T05:56:26.685Z,85.60
2023-04-27T05:56:58.429Z,86.50
2023-04-27T05:57:30.464Z,86.10
2023-04-27T05:58:08.242Z,82.60
2023-04-27T05:58:42.008Z,86.10
2023-04-27T05:59:14.079Z,84.40
2023-04-27T05:59:45.993Z,85.00
2023-04-27T06:00:19.557Z,85.10
2023-04-27T06:00:52.543Z,84.50
2023-04-27T06:01:24.258Z,85.00
2023-04-27T06:01:56.827Z,86.30
2023-04-27T06:02:28.787Z,85.00
2023-04-27T06:03:00.853Z,85.80
2023-04-27T06:03:33.117Z,84.40
2023-04-27T06:04:05.330Z,84.40
2023-04-27T06:04:37.184Z,85.10
2023-04-27T06:05:09.718Z,85.00
2023-04-27T06:05:41.642Z,84.50
2023-04-27T06:06:13.401Z,85.50
2023-04-27T06:06:45.608Z,85.00
2023-04-27T06:07:17.384Z,86.10
2023-04-27T06:07:49.286Z,85.10
2023-04-27T06:08:21.062Z,86.10
2023-04-27T06:08:52.777Z,85.20
2023-04-27T06:09:25.017Z,84.50
2023-04-27T06:09:56.756Z,84.10
2023-04-27T06:10:28.656Z,84.50
2023-04-27T06:11:00.432Z,85.00
2023-04-27T06:11:32.215Z,84.90
2023-04-27T06:12:08.976Z,84.40
2023-04-27T06:12:40.780Z,84.80
2023-04-27T06:13:12.509Z,84.50
2023-04-27T06:13:44.267Z,84.40
2023-04-27T06:14:16.336Z,86.80
2023-04-27T06:14:48.093Z,85.00
2023-04-27T06:15:19.970Z,84.40
2023-04-27T06:15:51.935Z,84.50
2023-04-27T06:16:24.315Z,85.10
2023-04-27T06:16:56.295Z,85.10
2023-04-27T06:17:28.059Z,85.00
2023-04-27T06:17:59.885Z,85.50
2023-04-27T06:18:31.719Z,85.50
2023-04-27T06:19:03.783Z,86.70
2023-04-27T06:19:35.575Z,85.50
2023-04-27T06:20:09.379Z,86.80
2023-04-27T06:20:42.079Z,85.10
2023-04-27T06:21:13.879Z,85.50
2023-04-27T06:21:45.747Z,84.50
2023-04-27T06:22:17.503Z,85.00
2023-04-27T06:22:49.331Z,85.00
2023-04-27T06:23:21.090Z,85.20
2023-04-27T06:23:52.832Z,86.20
2023-04-27T06:24:24.616Z,87.70
2023-04-27T06:24:56.530Z,83.30
2023-04-27T06:25:28.595Z,85.40
2023-04-27T06:26:00.371Z,84.60
2023-04-27T06:26:32.186Z,85.10
2023-04-27T06:27:03.968Z,86.90
2023-04-27T06:27:35.748Z,84.50
2023-04-27T06:28:07.505Z,85.00
2023-04-27T06:28:39.253Z,84.50
2023-04-27T06:29:11.556Z,86.30
2023-04-27T06:29:43.363Z,85.40
2023-04-27T06:30:15.133Z,85.20
2023-04-27T06:30:47.225Z,85.10
2023-04-27T06:31:18.997Z,87.20
2023-04-27T06:31:50.854Z,85.20
2023-04-27T06:32:22.636Z,84.60
2023-04-27T11:54:13.160Z,77.80
2023-04-27T11:54:53.778Z,77.70
2023-04-27T11:55:25.700Z,78.00
2023-04-27T11:56:01.172Z,78.20
2023-04-27T11:57:43.063Z,77.70
2023-04-27T11:58:48.049Z,77.70
2023-04-27T23:13:29.596Z,84.50
2023-04-27T23:14:02.298Z,84.50
2023-04-27T23:14:34.175Z,84.40
2023-04-27T23:15:06.384Z,84.70
2023-04-27T23:15:39.545Z,84.30
2023-04-27T23:16:46.198Z,84.40
2023-04-27T23:17:18.054Z,84.50
2023-04-27T23:18:22.254Z,84.90
2023-04-27T23:18:53.983Z,84.90
2023-04-27T23:19:25.893Z,84.60
2023-04-27T23:21:34.842Z,84.70
2023-04-27T23:22:06.832Z,84.80
2023-04-27T23:22:43.621Z,85.20
2023-04-27T23:23:15.465Z,85.60
2023-04-27T23:24:52.195Z,84.80
2023-04-27T23:25:24.412Z,84.80
2023-04-27T23:25:56.210Z,85.40
2023-04-27T23:26:28.107Z,85.10
2023-04-27T23:26:59.942Z,85.20
2023-04-27T23:27:31.985Z,85.30
2023-04-27T23:28:03.789Z,85.50
2023-04-27T23:28:35.537Z,85.00
2023-04-27T23:29:07.298Z,85.00
2023-04-27T23:29:39.368Z,85.00
2023-04-27T23:30:11.610Z,85.50
2023-04-27T23:31:15.728Z,85.30
2023-04-27T23:31:47.549Z,85.10
2023-04-27T23:32:19.384Z,85.60
2023-04-27T23:32:51.320Z,85.30
2023-04-27T23:33:55.877Z,85.00
2023-04-27T23:34:27.659Z,85.80
2023-04-27T23:34:59.428Z,85.50
2023-04-27T23:35:31.651Z,85.70
2023-04-27T23:36:04.474Z,86.00
2023-04-27T23:36:36.212Z,86.10
2023-04-27T23:37:08.165Z,85.50
2023-04-27T23:37:39.921Z,86.20
2023-04-27T23:38:43.823Z,85.70
2023-04-27T23:39:15.553Z,85.60
2023-04-27T23:39:47.303Z,85.00
2023-04-27T23:40:19.102Z,85.30
2023-04-27T23:40:50.876Z,85.50
2023-04-27T23:41:23.296Z,85.60
2023-04-27T23:41:55.105Z,85.80
2023-04-27T23:42:27.583Z,85.70
2023-04-27T23:42:59.454Z,85.30
2023-04-27T23:43:31.664Z,85.10
2023-04-27T23:44:03.498Z,85.20
2023-04-27T23:44:35.234Z,85.20
2023-04-27T23:45:39.444Z,84.90
2023-04-27T23:46:11.301Z,85.00
2023-04-27T23:46:43.145Z,85.30
2023-04-27T23:47:15.097Z,85.70